»·PEaware :: N251RT KBUR-KFUL

N251RT :: KBUR-KFUL

FLIGHT INFORMATION

Flight Status: Arrived
Operator: Privately registered:
United States
More flights under this callsign
Pilot: Roberto A. (10419)
Aircraft: CESSNA 310
(C310)
More flights by this aircraft type
Origin: KBUR Bob Hope-Burbank
United States
Destination: KFUL Fullerton Mun
United States
More flights between these airports :: More routes between these airports
Route:
File this flight plan on PilotEdge
Remarks:
Altitude:
(Current/Filed)
3,500ft
Speed:
(Current/Filed)
140kts
Departed: 23-Dec-18 05:13 PM
Arrived: 23-Dec-18 05:30 PM
Distance/Time
Traveled:
27nm/0:17
Distance/Time
To Go:
Arrived

Flight Plot

Page will automatically refresh every two minutes.


Map Options




Map Legend


Flown Route
Filed Route
Departure Airport
Arrival Airport
Navaid (VOR, NDB)
Fix

Horizontal Profiles

Position Reports

Time Latitude Longitude Heading Altitude Ground
Speed
23-Dec-18 16:50 34.200362 -118.359519 349 734ft 0kts
23-Dec-18 16:51 34.200362 -118.359519 349 734ft 0kts
23-Dec-18 16:52 34.200362 -118.359519 349 734ft 0kts
23-Dec-18 16:54 34.200362 -118.359519 349 734ft 0kts
23-Dec-18 16:55 34.200362 -118.359519 349 734ft 0kts
23-Dec-18 16:56 34.200362 -118.359519 349 734ft 0kts
23-Dec-18 16:57 34.200362 -118.359519 349 734ft 0kts
23-Dec-18 16:58 34.200362 -118.359519 349 734ft 0kts
23-Dec-18 16:59 34.200362 -118.359519 349 734ft 0kts
23-Dec-18 17:00 34.200362 -118.359519 349 734ft 0kts
23-Dec-18 17:01 34.200362 -118.359519 349 734ft 0kts
23-Dec-18 17:02 34.200362 -118.359519 349 734ft 0kts
23-Dec-18 17:03 34.200362 -118.359519 349 734ft 0kts
23-Dec-18 17:04 34.200362 -118.359519 349 734ft 0kts
23-Dec-18 17:05 34.200362 -118.359519 349 734ft 0kts
23-Dec-18 17:06 34.200362 -118.359519 349 734ft 0kts
23-Dec-18 17:07 34.200362 -118.359519 349 734ft 0kts
23-Dec-18 17:08 34.200362 -118.359519 349 734ft 0kts
23-Dec-18 17:09 34.200362 -118.359519 349 734ft 0kts
23-Dec-18 17:10 34.204073 -118.359358 344 734ft 28kts
23-Dec-18 17:10 34.210557 -118.361145 348 734ft 20kts
23-Dec-18 17:12 34.211804 -118.360757 70 734ft 11kts
23-Dec-18 17:12 34.204730 -118.358369 167 734ft 100kts
23-Dec-18 17:14 34.176693 -118.333208 69 1731ft 152kts
23-Dec-18 17:14 34.176322 -118.293381 102 2138ft 129kts
23-Dec-18 17:15 34.168576 -118.248800 103 2508ft 152kts
23-Dec-18 17:17 34.159339 -118.191663 101 3443ft 149kts
23-Dec-18 17:18 34.144573 -118.137147 121 3498ft 182kts
23-Dec-18 17:18 34.121900 -118.093735 126 3474ft 160kts
23-Dec-18 17:20 34.093868 -118.048783 128 3491ft 135kts
23-Dec-18 17:20 34.071024 -118.024171 148 3496ft 131kts
23-Dec-18 17:21 34.040739 -117.999658 149 3497ft 129kts
23-Dec-18 17:22 34.010916 -117.977552 151 3496ft 128kts
23-Dec-18 17:23 33.980513 -117.957140 152 3486ft 121kts
23-Dec-18 17:24 33.950478 -117.937570 152 3495ft 123kts
23-Dec-18 17:25 33.919735 -117.917271 149 3492ft 128kts
23-Dec-18 17:26 33.889021 -117.899498 178 3297ft 134kts
23-Dec-18 17:27 33.879800 -117.936608 278 1545ft 139kts
23-Dec-18 17:28 33.874275 -117.968887 250 362ft 89kts
23-Dec-18 17:29 33.871849 -117.980736 259 93ft 13kts
23-Dec-18 17:30 33.870864 -117.979737 79 93ft 0kts
23-Dec-18 17:31 33.870864 -117.979737 79 93ft 0kts
23-Dec-18 17:32 33.870864 -117.979737 79 93ft 0kts
23-Dec-18 17:33 33.870864 -117.979737 79 93ft 0kts
23-Dec-18 17:34 33.870864 -117.979737 79 93ft 0kts
23-Dec-18 17:35 33.870864 -117.979737 79 93ft 0kts
23-Dec-18 17:36 33.870864 -117.979737 79 93ft 0kts
23-Dec-18 17:37 33.870864 -117.979737 79 93ft 0kts
23-Dec-18 17:38 33.870864 -117.979737 79 93ft 0kts
23-Dec-18 17:39 33.870864 -117.979737 79 93ft 0kts
23-Dec-18 17:40 33.870864 -117.979737 79 93ft 0kts
23-Dec-18 17:41 33.870864 -117.979737 79 93ft 0kts
23-Dec-18 17:42 33.870864 -117.979737 79 93ft 0kts
23-Dec-18 17:43 33.870864 -117.979737 79 93ft 0kts

Navigation Log

Ident Type
Flight plan parsing failed, navigation log unavailable